createdAt,value
2023-11-07T00:01:58.251Z,10.31
2023-11-07T00:06:57.200Z,10.34
2023-11-07T00:11:56.179Z,10.34
2023-11-07T00:16:55.087Z,10.34
2023-11-07T00:21:54.024Z,10.34
2023-11-07T00:26:53.041Z,10.31
2023-11-07T00:31:51.931Z,10.30
2023-11-07T00:36:50.943Z,10.27
2023-11-07T00:41:49.847Z,10.27
2023-11-07T00:46:48.889Z,10.23
2023-11-07T00:51:47.886Z,10.21
2023-11-07T00:56:46.773Z,10.20
2023-11-07T01:01:45.699Z,10.20
2023-11-07T01:06:44.722Z,10.17
2023-11-07T01:11:43.494Z,10.16
2023-11-07T01:16:42.452Z,10.09
2023-11-07T01:21:41.444Z,10.08
2023-11-07T01:26:40.482Z,10.05
2023-11-07T01:31:39.270Z,10.02
2023-11-07T01:36:38.336Z,10.03
2023-11-07T01:41:37.308Z,9.98
2023-11-07T01:46:36.190Z,9.93
2023-11-07T01:51:35.077Z,9.94
2023-11-07T01:56:34.076Z,9.90
2023-11-07T02:01:34.399Z,9.90
2023-11-07T02:06:31.982Z,9.84
2023-11-07T02:11:30.900Z,9.83
2023-11-07T02:16:29.922Z,9.78
2023-11-07T02:21:28.824Z,9.78
2023-11-07T02:26:27.777Z,9.77
2023-11-07T02:31:26.659Z,9.75
2023-11-07T02:36:25.614Z,9.75
2023-11-07T02:41:24.531Z,9.75
2023-11-07T02:46:23.475Z,9.70
2023-11-07T02:51:22.529Z,9.70
2023-11-07T02:56:21.502Z,9.70
2023-11-07T03:01:20.449Z,9.67
2023-11-07T03:06:19.632Z,9.67
2023-11-07T03:11:18.321Z,9.65
2023-11-07T03:16:17.297Z,9.65
2023-11-07T03:21:16.109Z,9.65
2023-11-07T03:26:15.120Z,9.65
2023-11-07T03:31:14.081Z,9.63
2023-11-07T03:36:13.001Z,9.65
2023-11-07T03:41:11.928Z,9.63
2023-11-07T03:46:10.876Z,9.63
2023-11-07T03:51:09.844Z,9.62
2023-11-07T03:56:08.767Z,9.60
2023-11-07T04:01:07.773Z,9.55
2023-11-07T04:06:06.797Z,9.54
2023-11-07T04:11:06.051Z,9.50
2023-11-07T04:16:04.597Z,9.44
2023-11-07T04:21:03.583Z,9.42
2023-11-07T04:26:02.471Z,9.41
2023-11-07T04:31:01.444Z,9.36
2023-11-07T04:36:00.359Z,9.34
2023-11-07T04:40:59.306Z,9.30
2023-11-07T04:45:58.238Z,9.29
2023-11-07T04:50:57.312Z,9.24
2023-11-07T04:55:56.176Z,9.18
2023-11-07T05:00:55.109Z,9.15
2023-11-07T05:05:54.111Z,9.08
2023-11-07T05:10:53.004Z,9.04
2023-11-07T05:15:51.970Z,9.01
2023-11-07T05:20:50.977Z,9.01
2023-11-07T05:25:49.830Z,9.03
2023-11-07T05:30:48.821Z,9.03
2023-11-07T05:35:47.782Z,9.04
2023-11-07T05:40:46.785Z,9.04
2023-11-07T05:45:45.972Z,9.04
2023-11-07T05:50:44.811Z,9.03
2023-11-07T05:55:43.675Z,9.01
2023-11-07T06:00:42.491Z,9.04
2023-11-07T06:05:42.647Z,9.03
2023-11-07T06:10:40.381Z,9.01
2023-11-07T06:15:39.311Z,9.01
2023-11-07T06:20:38.363Z,9.01
2023-11-07T06:25:37.229Z,8.99
2023-11-07T06:30:36.194Z,9.01
2023-11-07T06:35:35.192Z,8.99
2023-11-07T06:40:34.117Z,9.04
2023-11-07T06:45:33.052Z,9.01
2023-11-07T06:50:32.080Z,9.06
2023-11-07T06:55:31.064Z,9.12
2023-11-07T07:00:29.960Z,9.42
2023-11-07T07:05:28.997Z,10.82
2023-11-07T07:10:27.852Z,11.64
2023-11-07T07:15:27.099Z,11.16
2023-11-07T07:20:26.678Z,10.57
2023-11-07T07:25:24.648Z,10.30
2023-11-07T07:30:23.971Z,10.08
2023-11-07T07:35:23.085Z,9.91
2023-11-07T07:40:21.606Z,9.87
2023-11-07T07:45:20.514Z,9.81
2023-11-07T07:50:19.430Z,9.80
2023-11-07T07:55:28.443Z,9.80
2023-11-07T08:00:17.445Z,9.81
2023-11-07T08:05:16.198Z,9.84
2023-11-07T08:10:15.237Z,9.84
2023-11-07T08:15:14.228Z,9.88
2023-11-07T08:20:13.162Z,9.94
2023-11-07T08:25:12.048Z,10.03
2023-11-07T08:35:09.975Z,10.17
2023-11-07T08:40:08.973Z,10.23
2023-11-07T08:45:07.994Z,10.30
2023-11-07T08:50:06.851Z,10.36
2023-11-07T08:55:05.716Z,10.42
2023-11-07T09:00:04.885Z,10.48
2023-11-07T09:05:03.719Z,10.57
2023-11-07T09:10:02.615Z,10.61
2023-11-07T09:15:01.596Z,10.61
2023-11-07T09:20:00.546Z,10.65
2023-11-07T09:24:59.477Z,10.70
2023-11-07T09:29:58.404Z,10.72
2023-11-07T09:34:57.382Z,10.79
2023-11-07T09:39:56.295Z,10.83
2023-11-07T09:44:55.224Z,10.85
2023-11-07T09:49:54.180Z,10.87
2023-11-07T09:54:53.139Z,10.91
2023-11-07T09:59:52.205Z,10.93
2023-11-07T10:04:51.166Z,10.97
2023-11-07T10:09:49.965Z,10.97
2023-11-07T10:14:48.974Z,11.01
2023-11-07T10:19:47.832Z,11.01
2023-11-07T10:24:46.778Z,11.04
2023-11-07T10:29:46.804Z,11.01
2023-11-07T10:34:44.674Z,10.98
2023-11-07T10:39:43.734Z,10.94
2023-11-07T10:44:42.589Z,10.95
2023-11-07T10:49:41.478Z,10.91
2023-11-07T10:54:40.488Z,10.93
2023-11-07T10:59:39.423Z,10.94
2023-11-07T11:04:38.417Z,10.98
2023-11-07T11:09:37.355Z,11.00
2023-11-07T11:14:36.279Z,11.01
2023-11-07T11:19:35.451Z,11.05
2023-11-07T11:24:34.151Z,11.11
2023-11-07T11:29:33.083Z,11.15
2023-11-07T11:34:32.217Z,11.19
2023-11-07T11:39:31.075Z,11.27
2023-11-07T11:44:29.974Z,11.27
2023-11-07T11:49:29.018Z,11.25
2023-11-07T11:54:27.982Z,11.27
2023-11-07T11:59:26.987Z,11.36
2023-11-07T12:04:25.910Z,11.43
2023-11-07T12:09:24.779Z,11.48
2023-11-07T12:14:23.644Z,11.55
2023-11-07T12:19:22.686Z,11.51
2023-11-07T12:24:21.644Z,11.46
2023-11-07T12:29:20.421Z,11.45
2023-11-07T12:34:19.488Z,11.48
2023-11-07T12:39:18.395Z,11.54
2023-11-07T12:44:17.276Z,11.58
2023-11-07T12:49:16.362Z,11.62
2023-11-07T12:54:15.167Z,11.67
2023-11-07T12:59:14.136Z,11.64
2023-11-07T13:04:13.145Z,11.62
2023-11-07T13:09:12.144Z,11.58
2023-11-07T13:14:10.985Z,11.54
2023-11-07T13:19:09.903Z,11.52
2023-11-07T13:24:08.888Z,11.51
2023-11-07T13:29:07.769Z,11.46
2023-11-07T13:34:07.373Z,11.40
2023-11-07T13:39:05.638Z,11.37
2023-11-07T13:44:04.555Z,11.37
2023-11-07T13:49:03.729Z,11.36
2023-11-07T13:54:02.460Z,11.34
2023-11-07T13:59:01.678Z,11.36
2023-11-07T14:04:00.541Z,11.36
2023-11-07T14:08:59.341Z,11.33
2023-11-07T14:13:58.265Z,11.28
2023-11-07T14:18:57.274Z,11.27
2023-11-07T14:23:56.226Z,11.23
2023-11-07T14:29:01.461Z,11.20
2023-11-07T14:33:54.316Z,11.16
2023-11-07T14:38:52.993Z,11.13
2023-11-07T14:43:51.994Z,11.09
2023-11-07T14:48:51.108Z,11.05
2023-11-07T14:53:49.864Z,11.01
2023-11-07T14:58:48.840Z,10.97
2023-11-07T15:03:47.813Z,10.93
2023-11-07T15:08:46.648Z,10.85
2023-11-07T15:13:45.627Z,10.73
2023-11-07T15:18:44.704Z,10.62
2023-11-07T15:23:43.556Z,10.49
2023-11-07T15:28:42.554Z,10.41
2023-11-07T15:33:41.520Z,10.42
2023-11-07T15:38:40.424Z,10.45
2023-11-07T15:43:39.328Z,10.48
2023-11-07T15:48:38.236Z,10.48
2023-11-07T15:53:37.143Z,10.45
2023-11-07T15:58:36.120Z,10.41
2023-11-07T16:03:35.068Z,10.39
2023-11-07T16:08:34.028Z,10.45
2023-11-07T16:13:32.924Z,10.45
2023-11-07T16:18:31.981Z,10.48
2023-11-07T16:23:30.846Z,10.49
2023-11-07T16:28:29.770Z,10.52
2023-11-07T16:33:28.803Z,10.54
2023-11-07T16:38:27.652Z,10.54
2023-11-07T16:43:26.697Z,10.48
2023-11-07T16:48:25.721Z,10.43
2023-11-07T16:53:24.508Z,10.41
2023-11-07T16:58:23.501Z,10.38
2023-11-07T17:03:22.494Z,10.34
2023-11-07T17:08:21.333Z,10.30
2023-11-07T17:13:20.276Z,10.27
2023-11-07T17:18:19.356Z,10.24
2023-11-07T17:23:18.209Z,10.23
2023-11-07T17:28:17.177Z,10.17
2023-11-07T17:33:16.267Z,10.10
2023-11-07T17:38:15.011Z,10.09
2023-11-07T17:43:13.985Z,10.06
2023-11-07T17:48:13.035Z,10.02
2023-11-07T17:53:11.940Z,9.96
2023-11-07T17:58:10.861Z,9.88
2023-11-07T18:03:09.972Z,9.88
2023-11-07T18:08:08.765Z,9.90
2023-11-07T18:13:10.077Z,9.91
2023-11-07T18:18:06.828Z,9.88
2023-11-07T18:23:05.637Z,9.88
2023-11-07T18:28:04.706Z,9.88
2023-11-07T18:33:03.590Z,9.91
2023-11-07T18:38:02.387Z,9.98
2023-11-07T18:43:01.362Z,9.98
2023-11-07T18:48:00.365Z,9.98
2023-11-07T18:52:59.235Z,10.01
2023-11-07T18:57:58.163Z,10.02
2023-11-07T19:02:57.183Z,10.03
2023-11-07T19:07:56.140Z,10.03
2023-11-07T19:12:55.058Z,10.03
2023-11-07T19:17:53.967Z,10.03
2023-11-07T19:22:52.912Z,10.02
2023-11-07T19:27:51.899Z,10.01
2023-11-07T19:32:52.784Z,10.01
2023-11-07T19:37:49.750Z,9.98
2023-11-07T19:42:48.693Z,9.98
2023-11-07T19:47:47.723Z,9.94
2023-11-07T19:52:52.369Z,9.93
2023-11-07T19:57:45.539Z,9.90
2023-11-07T20:02:44.632Z,9.87
2023-11-07T20:07:50.870Z,9.84
2023-11-07T20:12:42.491Z,9.81
2023-11-07T20:17:41.354Z,9.80
2023-11-07T20:22:40.273Z,9.73
2023-11-07T20:27:39.287Z,9.69
2023-11-07T20:32:38.400Z,9.66
2023-11-07T20:37:37.111Z,9.60
2023-11-07T20:42:36.090Z,9.57
2023-11-07T20:47:35.360Z,9.54
2023-11-07T20:52:34.313Z,9.52
2023-11-07T20:57:33.016Z,9.52
2023-11-07T21:02:31.886Z,9.50
2023-11-07T21:07:30.833Z,9.50
2023-11-07T21:12:29.799Z,9.47
2023-11-07T21:17:28.728Z,9.42
2023-11-07T21:22:27.802Z,9.42
2023-11-07T21:27:26.666Z,9.40
2023-11-07T21:32:25.663Z,9.34
2023-11-07T21:37:24.505Z,9.34
2023-11-07T21:42:23.515Z,9.30
2023-11-07T21:47:22.401Z,9.19
2023-11-07T21:52:21.351Z,9.16
2023-11-07T21:57:20.376Z,9.18
2023-11-07T22:02:19.298Z,9.18
2023-11-07T22:07:18.257Z,9.22
2023-11-07T22:12:17.201Z,9.22
2023-11-07T22:17:16.154Z,9.22
2023-11-07T22:22:15.153Z,9.24
2023-11-07T22:27:14.118Z,9.24
2023-11-07T22:32:12.978Z,9.24
2023-11-07T22:37:12.067Z,9.19
2023-11-07T22:42:10.893Z,9.15
2023-11-07T22:47:09.882Z,9.16
2023-11-07T22:52:08.770Z,9.14
2023-11-07T22:57:07.743Z,9.12
2023-11-07T23:02:06.712Z,9.12
2023-11-07T23:07:05.609Z,9.12
2023-11-07T23:12:04.588Z,9.12
2023-11-07T23:17:03.573Z,9.15
2023-11-07T23:22:02.452Z,9.16
2023-11-07T23:27:01.395Z,9.15
2023-11-07T23:32:00.371Z,9.14
2023-11-07T23:36:59.295Z,9.16
2023-11-07T23:41:58.411Z,9.16
2023-11-07T23:46:57.225Z,9.15
2023-11-07T23:51:56.144Z,9.12
2023-11-07T23:56:55.192Z,9.14
